createdAt,value
2022-08-27T00:00:42.589Z,366.50
2022-08-27T00:01:42.612Z,332.10
2022-08-27T00:02:42.558Z,341.70
2022-08-27T00:03:42.527Z,352.80
2022-08-27T00:04:42.515Z,353.90
2022-08-27T00:05:42.512Z,393.30
2022-08-27T00:06:42.567Z,400.90
2022-08-27T00:07:42.483Z,412.20
2022-08-27T00:08:42.468Z,401.30
2022-08-27T00:09:42.458Z,410.50
2022-08-27T00:10:42.444Z,402.20
2022-08-27T00:11:42.490Z,383.30
2022-08-27T00:12:42.430Z,381.20
2022-08-27T00:13:42.418Z,382.70
2022-08-27T00:14:42.404Z,375.10
2022-08-27T00:15:42.388Z,375.20
2022-08-27T00:16:42.476Z,365.50
2022-08-27T00:17:42.399Z,356.40
2022-08-27T00:18:42.359Z,345.60
2022-08-27T00:19:42.366Z,337.70
2022-08-27T00:20:42.346Z,333.00
2022-08-27T00:21:42.368Z,318.30
2022-08-27T00:22:42.312Z,311.70
2022-08-27T00:23:42.305Z,299.20
2022-08-27T00:24:49.151Z,297.50
2022-08-27T00:25:43.272Z,286.60
2022-08-27T00:26:43.424Z,284.40
2022-08-27T00:27:42.255Z,283.50
2022-08-27T00:28:42.243Z,295.70
2022-08-27T00:29:42.226Z,307.40
2022-08-27T00:30:42.231Z,304.10
2022-08-27T00:31:42.309Z,310.60
2022-08-27T00:32:42.198Z,318.50
2022-08-27T00:33:42.190Z,317.50
2022-08-27T00:34:42.172Z,311.10
2022-08-27T00:35:42.153Z,315.40
2022-08-27T00:36:42.194Z,294.50
2022-08-27T00:37:42.132Z,286.70
2022-08-27T00:38:42.124Z,283.20
2022-08-27T00:39:42.114Z,284.90
2022-08-27T00:40:42.113Z,289.90
2022-08-27T00:41:42.139Z,295.70
2022-08-27T00:42:42.075Z,298.00
2022-08-27T00:43:42.068Z,294.40
2022-08-27T00:44:42.050Z,291.40
2022-08-27T00:45:42.100Z,288.70
2022-08-27T00:46:42.082Z,293.00
2022-08-27T00:47:42.023Z,299.00
2022-08-27T00:48:42.040Z,294.90
2022-08-27T00:49:42.000Z,283.10
2022-08-27T00:50:41.995Z,274.30
2022-08-27T00:51:42.019Z,262.50
2022-08-27T00:52:41.974Z,251.80
2022-08-27T00:53:41.951Z,257.70
2022-08-27T00:54:41.955Z,266.50
2022-08-27T00:55:41.941Z,257.40
2022-08-27T00:56:41.978Z,269.50
2022-08-27T00:57:41.913Z,277.60
2022-08-27T00:58:41.904Z,270.10
2022-08-27T00:59:41.891Z,277.40
2022-08-27T01:00:41.947Z,294.40
2022-08-27T01:01:41.974Z,303.00
2022-08-27T01:02:41.865Z,305.90
2022-08-27T01:03:41.849Z,296.30
2022-08-27T01:04:41.844Z,291.00
2022-08-27T01:05:41.818Z,299.00
2022-08-27T01:06:41.858Z,305.20
2022-08-27T01:07:41.800Z,304.10
2022-08-27T01:08:41.809Z,306.30
2022-08-27T01:09:41.781Z,308.30
2022-08-27T01:10:41.769Z,319.20
2022-08-27T01:11:41.791Z,309.60
2022-08-27T01:12:41.750Z,301.30
2022-08-27T01:13:59.091Z,283.20
2022-08-27T01:14:42.718Z,268.80
2022-08-27T01:15:41.692Z,270.80
2022-08-27T01:16:41.781Z,276.00
2022-08-27T01:17:41.680Z,279.80
2022-08-27T01:18:41.678Z,275.20
2022-08-27T01:19:41.652Z,265.10
2022-08-27T01:20:41.661Z,261.20
2022-08-27T01:21:41.693Z,251.90
2022-08-27T01:22:41.641Z,255.20
2022-08-27T01:23:41.621Z,252.60
2022-08-27T01:24:41.611Z,240.30
2022-08-27T01:25:41.580Z,248.30
2022-08-27T01:26:41.635Z,240.30
2022-08-27T01:27:41.562Z,226.10
2022-08-27T01:28:41.570Z,233.90
2022-08-27T01:29:41.535Z,218.80
2022-08-27T01:30:41.533Z,214.30
2022-08-27T01:31:41.595Z,210.80
2022-08-27T01:32:41.514Z,215.70
2022-08-27T01:33:41.490Z,206.60
2022-08-27T01:34:41.515Z,215.90
2022-08-27T01:35:41.470Z,220.40
2022-08-27T01:36:41.508Z,230.00
2022-08-27T01:37:41.441Z,232.60
2022-08-27T01:38:41.442Z,228.90
2022-08-27T01:39:41.422Z,233.50
2022-08-27T01:40:41.418Z,248.80
2022-08-27T01:41:41.438Z,274.10
2022-08-27T01:42:41.398Z,280.20
2022-08-27T01:43:41.372Z,288.30
2022-08-27T01:44:41.366Z,288.80
2022-08-27T01:45:41.359Z,283.70
2022-08-27T01:46:41.436Z,265.20
2022-08-27T01:47:41.320Z,244.70
2022-08-27T01:48:41.327Z,245.20
2022-08-27T01:49:41.301Z,254.80
2022-08-27T01:50:41.290Z,241.10
2022-08-27T01:51:41.337Z,235.80
2022-08-27T01:52:41.273Z,250.80
2022-08-27T01:53:41.253Z,243.10
2022-08-27T01:54:41.259Z,230.80
2022-08-27T01:55:41.236Z,223.80
2022-08-27T01:56:42.270Z,210.90
2022-08-27T01:57:41.213Z,215.40
2022-08-27T01:58:41.217Z,215.40
2022-08-27T01:59:41.184Z,222.70
2022-08-27T02:00:41.240Z,229.40
2022-08-27T02:01:41.239Z,240.60
2022-08-27T02:02:41.163Z,255.80
2022-08-27T02:03:41.148Z,264.40
2022-08-27T02:04:41.138Z,272.60
2022-08-27T02:05:44.630Z,279.30
2022-08-27T02:06:41.173Z,286.70
2022-08-27T02:07:41.093Z,284.20
2022-08-27T02:08:41.081Z,273.10
2022-08-27T02:09:41.069Z,275.70
2022-08-27T02:10:41.099Z,283.40
2022-08-27T02:11:44.935Z,282.00
2022-08-27T02:12:41.044Z,272.90
2022-08-27T02:13:41.025Z,272.90
2022-08-27T02:14:41.014Z,270.20
2022-08-27T02:15:40.993Z,271.10
2022-08-27T02:16:41.291Z,259.60
2022-08-27T02:17:41.980Z,256.20
2022-08-27T02:18:41.675Z,256.00
2022-08-27T02:19:40.939Z,254.80
2022-08-27T02:20:40.949Z,239.10
2022-08-27T02:21:41.000Z,222.90
2022-08-27T02:22:40.920Z,217.50
2022-08-27T02:23:40.912Z,214.60
2022-08-27T02:24:40.907Z,193.90
2022-08-27T02:25:40.875Z,183.60
2022-08-27T02:26:40.925Z,181.90
2022-08-27T02:27:40.862Z,198.50
2022-08-27T02:28:40.847Z,195.90
2022-08-27T02:29:40.835Z,195.80
2022-08-27T02:30:40.822Z,193.30
2022-08-27T02:31:40.895Z,192.10
2022-08-27T02:32:40.806Z,195.70
2022-08-27T02:33:40.798Z,204.50
2022-08-27T02:34:40.770Z,197.80
2022-08-27T02:35:40.769Z,190.50
2022-08-27T02:36:40.800Z,179.10
2022-08-27T02:37:40.739Z,171.70
2022-08-27T02:38:40.734Z,162.30
2022-08-27T02:39:45.514Z,156.30
2022-08-27T02:40:41.707Z,167.80
2022-08-27T02:41:40.729Z,163.60
2022-08-27T02:42:40.692Z,160.70
2022-08-27T02:43:40.669Z,162.40
2022-08-27T02:44:40.656Z,152.20
2022-08-27T02:45:40.639Z,149.00
2022-08-27T02:46:40.740Z,161.10
2022-08-27T02:47:40.622Z,160.50
2022-08-27T02:48:40.606Z,162.40
2022-08-27T02:49:40.595Z,158.40
2022-08-27T02:50:40.586Z,158.00
2022-08-27T02:51:40.611Z,153.60
2022-08-27T02:52:40.570Z,153.30
2022-08-27T02:53:40.554Z,149.30
2022-08-27T02:54:40.549Z,152.80
2022-08-27T02:55:40.538Z,144.30
2022-08-27T02:56:40.566Z,144.90
2022-08-27T02:57:40.506Z,144.20
2022-08-27T02:58:40.500Z,148.30
2022-08-27T02:59:40.479Z,146.60
2022-08-27T03:00:40.484Z,146.00
2022-08-27T03:01:40.601Z,145.60
2022-08-27T03:02:40.508Z,146.00
2022-08-27T03:03:40.447Z,157.00
2022-08-27T03:04:40.434Z,155.80
2022-08-27T03:05:40.409Z,156.00
2022-08-27T03:06:40.460Z,153.50
2022-08-27T03:07:40.422Z,150.70
2022-08-27T03:08:52.650Z,151.10
2022-08-27T03:09:41.371Z,152.20
2022-08-27T03:10:40.354Z,159.50
2022-08-27T03:11:40.391Z,159.80
2022-08-27T03:12:40.357Z,163.30
2022-08-27T03:13:40.319Z,166.40
2022-08-27T03:14:40.310Z,161.00
2022-08-27T03:15:40.357Z,159.20
2022-08-27T03:16:40.290Z,158.80
2022-08-27T03:17:40.333Z,157.80
2022-08-27T03:18:40.278Z,158.40
2022-08-27T03:19:40.263Z,148.00
2022-08-27T03:20:40.236Z,140.40
2022-08-27T03:21:40.217Z,130.90
2022-08-27T03:22:40.276Z,132.30
2022-08-27T03:23:40.208Z,120.00
2022-08-27T03:24:40.203Z,119.50
2022-08-27T03:25:40.187Z,120.20
2022-08-27T03:26:40.176Z,119.00
2022-08-27T03:27:40.205Z,134.50
2022-08-27T03:28:40.149Z,143.30
2022-08-27T03:29:40.141Z,152.40
2022-08-27T03:30:40.134Z,155.50
2022-08-27T03:31:40.166Z,154.10
2022-08-27T03:32:40.162Z,168.70
2022-08-27T03:33:40.094Z,224.80
2022-08-27T03:34:40.087Z,280.60
2022-08-27T03:35:40.085Z,343.00
2022-08-27T03:36:40.055Z,366.30
2022-08-27T03:37:40.093Z,368.60
2022-08-27T03:38:40.044Z,362.70
2022-08-27T03:39:40.031Z,342.50
2022-08-27T03:40:40.028Z,332.90
2022-08-27T03:41:55.005Z,325.30
2022-08-27T03:42:41.038Z,324.80
2022-08-27T03:43:39.988Z,335.30
2022-08-27T03:44:39.988Z,342.60
2022-08-27T03:45:40.919Z,362.10
2022-08-27T03:46:40.996Z,357.70
2022-08-27T03:47:39.976Z,364.90
2022-08-27T03:48:39.962Z,365.80
2022-08-27T03:49:39.910Z,365.80
2022-08-27T03:50:39.904Z,367.50
2022-08-27T03:51:39.897Z,363.60
2022-08-27T03:52:39.919Z,382.70
2022-08-27T03:53:39.848Z,418.80
2022-08-27T03:54:39.848Z,399.10
2022-08-27T03:55:39.842Z,399.40
2022-08-27T03:56:39.837Z,390.20
2022-08-27T03:57:39.859Z,392.60
2022-08-27T03:58:39.814Z,383.00
2022-08-27T03:59:39.823Z,404.20
2022-08-27T04:00:39.793Z,396.10
2022-08-27T04:01:39.817Z,394.20
2022-08-27T04:02:39.846Z,382.80
2022-08-27T04:03:39.753Z,380.60
2022-08-27T04:04:39.736Z,377.80
2022-08-27T04:05:39.746Z,365.90
2022-08-27T04:06:39.722Z,370.50
2022-08-27T04:07:39.757Z,222.50
2022-08-27T04:08:39.692Z,88.70
2022-08-27T04:09:39.692Z,93.00
2022-08-27T04:10:39.682Z,85.00
2022-08-27T04:11:39.672Z,76.00
2022-08-27T04:12:39.682Z,77.80
2022-08-27T04:13:39.644Z,80.90
2022-08-27T04:14:39.628Z,89.20
2022-08-27T04:15:40.708Z,88.20
2022-08-27T04:16:39.596Z,97.30
2022-08-27T04:17:39.644Z,96.70
2022-08-27T04:18:39.583Z,95.90
2022-08-27T04:19:39.575Z,96.40
2022-08-27T04:20:39.562Z,91.70
2022-08-27T04:21:39.544Z,94.20
2022-08-27T04:22:39.574Z,106.40
2022-08-27T04:23:39.518Z,101.60
2022-08-27T04:24:39.491Z,93.10
2022-08-27T04:25:39.518Z,93.00
2022-08-27T04:26:39.485Z,92.60
2022-08-27T04:27:39.532Z,90.20
2022-08-27T04:28:39.465Z,89.60
2022-08-27T04:29:39.841Z,90.20
2022-08-27T04:30:39.431Z,85.80
2022-08-27T04:31:39.462Z,88.30
2022-08-27T04:32:39.463Z,95.40
2022-08-27T04:33:39.397Z,89.70
2022-08-27T04:34:39.425Z,85.90
2022-08-27T04:35:39.383Z,86.10
2022-08-27T04:36:39.364Z,88.30
2022-08-27T04:37:39.404Z,91.80
2022-08-27T04:38:39.354Z,94.50
2022-08-27T04:39:39.344Z,93.70
2022-08-27T04:40:39.335Z,95.30
2022-08-27T04:41:39.318Z,100.70
2022-08-27T04:42:39.346Z,104.20
2022-08-27T04:43:39.289Z,103.80
2022-08-27T04:44:39.284Z,104.70
2022-08-27T04:45:39.275Z,106.50
2022-08-27T04:46:39.331Z,110.90
2022-08-27T04:47:39.294Z,121.00
2022-08-27T04:48:39.242Z,159.60
2022-08-27T04:49:39.234Z,130.20
2022-08-27T04:50:39.226Z,119.20
2022-08-27T04:51:39.368Z,127.50
2022-08-27T04:52:40.319Z,130.30
2022-08-27T04:53:39.184Z,137.70
2022-08-27T04:54:39.174Z,141.00
2022-08-27T04:55:39.160Z,150.10
2022-08-27T04:56:39.150Z,153.90
2022-08-27T04:57:39.175Z,156.00
2022-08-27T04:58:39.106Z,157.00
2022-08-27T04:59:39.116Z,183.90
2022-08-27T05:00:39.100Z,184.90
2022-08-27T05:01:39.162Z,187.40
2022-08-27T05:02:39.143Z,188.70
2022-08-27T05:03:39.070Z,180.40
2022-08-27T05:04:39.059Z,162.20
2022-08-27T05:05:42.712Z,168.30
2022-08-27T05:06:39.039Z,171.00
2022-08-27T05:07:39.079Z,169.50
2022-08-27T05:08:39.014Z,175.00
2022-08-27T05:09:38.998Z,184.10
2022-08-27T05:10:38.992Z,185.90
2022-08-27T05:11:38.995Z,186.90
2022-08-27T05:12:39.026Z,193.90
2022-08-27T05:13:38.974Z,197.30
2022-08-27T05:14:38.945Z,200.10
2022-08-27T05:15:38.961Z,196.40
2022-08-27T05:16:38.915Z,198.50
2022-08-27T05:17:38.966Z,219.30
2022-08-27T05:18:43.111Z,213.70
2022-08-27T05:19:39.894Z,220.40
2022-08-27T05:20:38.889Z,208.60
2022-08-27T05:21:38.917Z,206.00
2022-08-27T05:22:38.896Z,204.90
2022-08-27T05:23:38.864Z,204.40
2022-08-27T05:24:38.843Z,195.80
2022-08-27T05:25:38.823Z,200.60
2022-08-27T05:26:38.808Z,197.10
2022-08-27T05:27:38.845Z,193.00
2022-08-27T05:28:38.784Z,183.40
2022-08-27T05:29:38.766Z,173.90
2022-08-27T05:30:38.789Z,171.40
2022-08-27T05:31:38.816Z,170.80
2022-08-27T05:32:38.802Z,169.90
2022-08-27T05:33:38.749Z,168.70
2022-08-27T05:34:38.713Z,165.00
2022-08-27T05:35:38.717Z,166.50
2022-08-27T05:36:38.714Z,161.10
2022-08-27T05:37:39.735Z,158.80
2022-08-27T05:38:38.673Z,155.70
2022-08-27T05:39:38.683Z,157.10
2022-08-27T05:40:38.663Z,160.80
2022-08-27T05:41:38.652Z,166.00
2022-08-27T05:42:38.624Z,173.30
2022-08-27T05:43:38.666Z,179.10
2022-08-27T05:44:41.423Z,182.30
2022-08-27T05:45:38.624Z,185.70
2022-08-27T05:46:38.622Z,185.80
2022-08-27T05:47:44.427Z,198.90
2022-08-27T05:48:39.613Z,206.40
2022-08-27T05:49:38.551Z,201.80
2022-08-27T05:50:38.535Z,202.60
2022-08-27T05:51:38.548Z,200.70
2022-08-27T05:52:38.515Z,194.80
2022-08-27T05:53:38.555Z,189.00
2022-08-27T05:54:38.501Z,192.40
2022-08-27T05:55:38.489Z,166.90
2022-08-27T05:56:38.480Z,156.10
2022-08-27T05:57:38.463Z,165.80
2022-08-27T05:58:38.490Z,163.00
2022-08-27T05:59:38.435Z,164.80
2022-08-27T06:00:38.414Z,161.30
2022-08-27T06:01:38.411Z,157.70
2022-08-27T06:02:38.447Z,152.80
2022-08-27T06:03:38.449Z,151.00
2022-08-27T06:04:38.385Z,147.20
2022-08-27T06:05:38.426Z,136.30
2022-08-27T06:06:38.364Z,129.50
2022-08-27T06:07:38.344Z,122.40
2022-08-27T06:08:38.405Z,118.30
2022-08-27T06:09:38.341Z,119.50
2022-08-27T06:10:38.312Z,122.80
2022-08-27T06:11:38.315Z,130.40
2022-08-27T06:12:38.283Z,127.30
2022-08-27T06:13:38.530Z,126.40
2022-08-27T06:14:38.267Z,120.40
2022-08-27T06:15:38.349Z,121.40
2022-08-27T06:16:38.260Z,123.40
2022-08-27T06:17:38.242Z,126.90
2022-08-27T06:18:38.271Z,119.80
2022-08-27T06:19:38.219Z,114.70
2022-08-27T06:20:38.204Z,117.20
2022-08-27T06:21:38.203Z,123.80
2022-08-27T06:22:38.179Z,132.70
2022-08-27T06:23:38.271Z,139.90
2022-08-27T06:24:38.158Z,152.00
2022-08-27T06:25:38.156Z,159.60
2022-08-27T06:26:38.139Z,164.20
2022-08-27T06:27:38.125Z,164.00
2022-08-27T06:28:38.155Z,204.60
2022-08-27T06:29:38.123Z,136.60
2022-08-27T06:30:38.172Z,163.10
2022-08-27T06:31:38.833Z,127.10
2022-08-27T06:32:38.069Z,133.00
2022-08-27T06:33:38.103Z,135.30
2022-08-27T06:34:38.049Z,134.80
2022-08-27T06:35:38.041Z,177.60
2022-08-27T06:36:38.035Z,147.10
2022-08-27T06:37:38.035Z,151.70
2022-08-27T06:38:38.046Z,140.80
2022-08-27T06:39:37.999Z,145.20
2022-08-27T06:40:38.032Z,139.30
2022-08-27T06:41:37.971Z,140.90
2022-08-27T06:42:37.954Z,129.60
2022-08-27T06:43:37.998Z,120.80
2022-08-27T06:44:37.933Z,131.40
2022-08-27T06:45:37.943Z,137.70
2022-08-27T06:46:37.970Z,148.00
2022-08-27T06:47:37.910Z,150.50
2022-08-27T06:48:37.939Z,140.70
2022-08-27T06:49:37.877Z,136.40
2022-08-27T06:50:37.878Z,126.30
2022-08-27T06:51:37.855Z,121.30
2022-08-27T06:52:37.843Z,120.90
2022-08-27T06:53:37.905Z,110.90
2022-08-27T06:54:37.832Z,98.80
2022-08-27T06:55:37.847Z,89.30
2022-08-27T06:56:37.794Z,72.00
2022-08-27T06:57:37.794Z,55.60
2022-08-27T06:58:37.815Z,54.30
2022-08-27T06:59:38.693Z,61.40
2022-08-27T07:00:37.752Z,58.00
2022-08-27T07:01:37.811Z,55.00
2022-08-27T07:02:37.763Z,65.80
2022-08-27T07:03:37.763Z,77.10
2022-08-27T07:04:37.708Z,98.40
2022-08-27T07:05:37.699Z,116.50
2022-08-27T07:06:37.685Z,129.70
2022-08-27T07:07:43.185Z,129.90
2022-08-27T07:08:38.714Z,131.80
2022-08-27T07:09:37.663Z,127.20
2022-08-27T07:10:37.652Z,120.40
2022-08-27T07:11:37.639Z,101.70
2022-08-27T07:12:37.614Z,88.50
2022-08-27T07:13:37.655Z,82.20
2022-08-27T07:14:38.399Z,73.90
2022-08-27T07:15:37.634Z,77.00
2022-08-27T07:16:37.590Z,77.40
2022-08-27T07:17:37.588Z,71.70
2022-08-27T07:18:37.606Z,68.80
2022-08-27T07:19:37.546Z,73.00
2022-08-27T07:20:37.533Z,69.30
2022-08-27T07:21:37.540Z,74.60
2022-08-27T07:22:37.507Z,67.00
2022-08-27T07:23:37.535Z,60.30
2022-08-27T07:24:37.492Z,58.80
2022-08-27T07:25:37.485Z,56.70
2022-08-27T07:26:37.470Z,53.00
2022-08-27T07:27:37.469Z,51.90
2022-08-27T07:28:37.494Z,54.80
2022-08-27T07:29:37.460Z,56.90
2022-08-27T07:30:37.471Z,55.30
2022-08-27T07:31:37.431Z,51.20
2022-08-27T07:32:37.405Z,51.80
2022-08-27T07:33:37.443Z,53.30
2022-08-27T07:34:37.364Z,51.90
2022-08-27T07:35:37.360Z,50.40
2022-08-27T07:36:37.359Z,45.50
2022-08-27T07:37:37.355Z,47.10
2022-08-27T07:38:37.384Z,47.60
2022-08-27T07:39:37.321Z,50.30
2022-08-27T07:40:37.395Z,51.90
2022-08-27T07:41:37.353Z,48.90
2022-08-27T07:42:37.292Z,41.70
2022-08-27T07:43:37.283Z,35.90
2022-08-27T07:44:37.319Z,32.60
2022-08-27T07:45:37.340Z,31.50
2022-08-27T07:46:40.095Z,28.10
2022-08-27T07:47:37.231Z,26.60
2022-08-27T07:48:37.918Z,26.70
2022-08-27T07:49:37.250Z,25.40
2022-08-27T07:50:37.194Z,24.50
2022-08-27T07:51:37.204Z,22.30
2022-08-27T07:52:37.175Z,23.30
2022-08-27T07:53:37.174Z,24.20
2022-08-27T07:54:37.192Z,24.50
2022-08-27T07:55:37.164Z,25.40
2022-08-27T07:56:37.122Z,33.50
2022-08-27T07:57:37.119Z,42.40
2022-08-27T07:58:37.124Z,50.70
2022-08-27T07:59:37.139Z,52.60
2022-08-27T08:00:37.103Z,48.60
2022-08-27T08:01:37.107Z,47.60
2022-08-27T08:02:37.149Z,49.30
2022-08-27T08:03:37.053Z,47.40
2022-08-27T08:04:37.074Z,52.10
2022-08-27T08:05:37.028Z,54.00
2022-08-27T08:06:37.010Z,52.30
2022-08-27T08:07:36.996Z,51.30
2022-08-27T08:08:36.996Z,52.90
2022-08-27T08:09:37.028Z,50.40
2022-08-27T08:10:36.971Z,49.30
2022-08-27T08:11:36.982Z,52.60
2022-08-27T08:12:36.958Z,59.60
2022-08-27T08:13:36.936Z,57.00
2022-08-27T08:14:36.981Z,52.70
2022-08-27T08:15:36.922Z,50.80
2022-08-27T08:16:36.942Z,52.80
2022-08-27T08:17:36.903Z,51.70
2022-08-27T08:18:36.887Z,52.10
2022-08-27T08:19:36.949Z,48.60
2022-08-27T08:20:56.962Z,49.30
2022-08-27T08:21:37.849Z,48.10
2022-08-27T08:22:36.839Z,40.60
2022-08-27T08:23:36.839Z,39.20
2022-08-27T08:24:36.856Z,35.20
2022-08-27T08:25:38.558Z,32.40
2022-08-27T08:26:36.799Z,35.20
2022-08-27T08:27:36.824Z,37.40
2022-08-27T08:28:36.786Z,36.80
2022-08-27T08:29:36.807Z,36.50
2022-08-27T08:30:36.793Z,40.60
2022-08-27T08:31:36.747Z,42.60
2022-08-27T08:32:36.735Z,37.60
2022-08-27T08:33:36.723Z,32.40
2022-08-27T08:34:36.744Z,29.70
2022-08-27T08:35:40.692Z,27.70
2022-08-27T08:36:36.681Z,27.10
2022-08-27T08:37:36.654Z,31.00
2022-08-27T08:38:36.654Z,23.60
2022-08-27T08:39:36.688Z,20.50
2022-08-27T08:40:36.683Z,23.40
2022-08-27T08:41:36.619Z,27.80
2022-08-27T08:42:36.613Z,32.40
2022-08-27T08:43:36.613Z,19.70
2022-08-27T08:44:36.647Z,18.10
2022-08-27T08:45:36.652Z,18.20
2022-08-27T08:46:36.585Z,18.60
2022-08-27T08:47:36.569Z,21.00
2022-08-27T08:48:36.560Z,19.20
2022-08-27T08:49:36.580Z,20.40
2022-08-27T08:50:36.536Z,19.50
2022-08-27T08:51:36.517Z,20.30
2022-08-27T08:52:36.499Z,20.40
2022-08-27T08:53:36.493Z,21.30
2022-08-27T08:54:36.534Z,20.10
2022-08-27T08:55:36.473Z,17.20
2022-08-27T08:56:36.472Z,16.10
2022-08-27T08:57:36.452Z,15.80
2022-08-27T08:58:36.439Z,15.40
2022-08-27T08:59:36.465Z,15.10
2022-08-27T09:00:36.428Z,15.00
2022-08-27T09:01:36.433Z,15.60
2022-08-27T09:02:36.395Z,14.90
2022-08-27T09:03:36.469Z,16.40
2022-08-27T09:04:36.416Z,18.30
2022-08-27T09:05:36.359Z,19.20
2022-08-27T09:06:36.352Z,20.20
2022-08-27T09:07:36.838Z,20.00
2022-08-27T09:08:41.114Z,20.80
2022-08-27T09:09:37.349Z,24.00
2022-08-27T09:10:36.303Z,41.40
2022-08-27T09:11:36.289Z,55.30
2022-08-27T09:12:36.289Z,44.20
2022-08-27T09:13:36.319Z,35.60
2022-08-27T09:14:36.297Z,36.70
2022-08-27T09:15:36.269Z,38.70
2022-08-27T09:16:36.288Z,35.70
2022-08-27T09:17:36.235Z,30.60
2022-08-27T09:18:36.215Z,30.60
2022-08-27T09:19:36.250Z,28.80
2022-08-27T09:20:36.204Z,27.00
2022-08-27T09:21:36.179Z,26.80
2022-08-27T09:22:36.177Z,25.80
2022-08-27T09:23:36.154Z,27.90
2022-08-27T09:24:36.203Z,28.60
2022-08-27T09:25:36.157Z,33.00
2022-08-27T09:26:37.261Z,32.10
2022-08-27T09:27:36.110Z,41.10
2022-08-27T09:28:36.102Z,40.30
2022-08-27T09:29:36.134Z,36.10
2022-08-27T09:30:36.137Z,34.60
2022-08-27T09:31:36.066Z,36.50
2022-08-27T09:32:36.069Z,37.20
2022-08-27T09:33:43.858Z,37.80
2022-08-27T09:34:37.089Z,41.40
2022-08-27T09:35:36.030Z,48.40
2022-08-27T09:36:36.019Z,50.60
2022-08-27T09:37:36.023Z,56.70
2022-08-27T09:38:35.990Z,49.90
2022-08-27T09:39:36.019Z,42.60
2022-08-27T09:40:36.018Z,43.10
2022-08-27T09:41:35.952Z,46.20
2022-08-27T09:42:35.944Z,45.70
2022-08-27T09:43:35.945Z,44.70
2022-08-27T09:44:36.029Z,47.70
2022-08-27T09:45:36.007Z,47.60
2022-08-27T09:46:35.919Z,45.30
2022-08-27T09:47:35.890Z,49.90
2022-08-27T09:48:35.884Z,48.00
2022-08-27T09:49:35.929Z,48.70
2022-08-27T09:50:37.097Z,49.70
2022-08-27T09:51:35.857Z,47.40
2022-08-27T09:52:37.973Z,51.60
2022-08-27T09:53:35.822Z,56.30
2022-08-27T09:54:35.869Z,57.00
2022-08-27T09:55:35.814Z,57.30
2022-08-27T09:56:35.815Z,49.70
2022-08-27T09:57:35.800Z,42.20
2022-08-27T09:58:35.825Z,35.60
2022-08-27T09:59:35.810Z,30.50
2022-08-27T10:00:35.753Z,31.70
2022-08-27T10:01:35.816Z,33.00
2022-08-27T10:02:35.739Z,34.10
2022-08-27T10:03:35.785Z,45.30
2022-08-27T10:04:50.061Z,50.90
2022-08-27T10:05:36.705Z,54.50
2022-08-27T10:06:35.701Z,55.70
2022-08-27T10:07:35.687Z,56.10
2022-08-27T10:08:35.663Z,48.90
2022-08-27T10:09:35.688Z,44.60
2022-08-27T10:10:35.642Z,38.80
2022-08-27T10:11:35.634Z,38.20
2022-08-27T10:12:35.618Z,39.50
2022-08-27T10:13:35.609Z,41.00
2022-08-27T10:14:35.650Z,43.30
2022-08-27T10:15:41.873Z,44.80
2022-08-27T10:16:36.635Z,46.60
2022-08-27T10:17:35.571Z,53.50
2022-08-27T10:18:35.556Z,51.50
2022-08-27T10:19:35.601Z,51.50
2022-08-27T10:20:35.545Z,42.80
2022-08-27T10:21:35.518Z,38.80
2022-08-27T10:22:35.524Z,35.90
2022-08-27T10:23:35.506Z,36.00
2022-08-27T10:24:35.539Z,49.50
2022-08-27T10:25:35.483Z,56.10
2022-08-27T10:26:35.464Z,61.20
2022-08-27T10:27:35.455Z,65.00
2022-08-27T10:28:35.459Z,57.30
2022-08-27T10:29:35.474Z,55.60
2022-08-27T10:30:35.433Z,52.60
2022-08-27T10:31:35.507Z,47.70
2022-08-27T10:32:35.422Z,43.90
2022-08-27T10:33:35.428Z,41.40
2022-08-27T10:34:35.451Z,41.30
2022-08-27T10:35:35.395Z,36.80
2022-08-27T10:36:36.366Z,37.00
2022-08-27T10:37:40.326Z,43.30
2022-08-27T10:38:39.049Z,48.20
2022-08-27T10:39:36.369Z,49.70
2022-08-27T10:40:35.391Z,49.50
2022-08-27T10:41:35.284Z,48.00
2022-08-27T10:42:35.281Z,46.40
2022-08-27T10:43:35.297Z,43.70
2022-08-27T10:44:35.341Z,40.90
2022-08-27T10:45:35.294Z,33.40
2022-08-27T10:46:35.316Z,28.40
2022-08-27T10:47:35.261Z,23.80
2022-08-27T10:48:35.239Z,25.60
2022-08-27T10:49:35.291Z,32.60
2022-08-27T10:50:35.210Z,30.90
2022-08-27T10:51:35.195Z,32.30
2022-08-27T10:52:35.203Z,33.50
2022-08-27T10:53:35.175Z,36.60
2022-08-27T10:54:35.213Z,35.90
2022-08-27T10:55:35.146Z,28.50
2022-08-27T10:56:35.152Z,23.70
2022-08-27T10:57:55.190Z,22.00
2022-08-27T10:58:36.112Z,26.30
2022-08-27T10:59:35.158Z,31.70
2022-08-27T11:00:35.173Z,35.80
2022-08-27T11:01:35.090Z,36.50
2022-08-27T11:02:35.121Z,26.40
2022-08-27T11:03:35.069Z,23.10
2022-08-27T11:04:35.056Z,22.90
2022-08-27T11:05:35.083Z,21.60
2022-08-27T11:06:35.025Z,19.20
2022-08-27T11:07:35.009Z,20.30
2022-08-27T11:08:35.036Z,22.00
2022-08-27T11:09:34.985Z,20.70
2022-08-27T11:10:35.016Z,26.50
2022-08-27T11:12:12.761Z,45.90
2022-08-27T11:12:35.954Z,48.40
2022-08-27T11:13:34.959Z,52.50
2022-08-27T11:14:34.967Z,57.00
2022-08-27T11:15:34.987Z,59.70
2022-08-27T11:16:34.963Z,59.80
2022-08-27T11:17:34.933Z,61.30
2022-08-27T11:18:34.896Z,62.00
2022-08-27T11:19:34.871Z,58.40
2022-08-27T11:20:34.953Z,61.40
2022-08-27T11:21:34.871Z,58.60
2022-08-27T11:22:34.874Z,68.60
2022-08-27T11:23:34.858Z,75.60
2022-08-27T11:24:35.308Z,93.40
2022-08-27T11:25:34.872Z,88.00
2022-08-27T11:26:34.820Z,71.60
2022-08-27T11:27:34.796Z,64.90
2022-08-27T11:28:34.798Z,52.60
2022-08-27T11:29:34.779Z,41.40
2022-08-27T11:30:34.831Z,38.30
2022-08-27T11:31:34.814Z,38.60
2022-08-27T11:32:34.745Z,36.50
2022-08-27T11:33:34.725Z,37.60
2022-08-27T11:34:34.746Z,36.00
2022-08-27T11:35:34.849Z,36.10
2022-08-27T11:36:34.735Z,35.30
2022-08-27T11:37:34.687Z,32.00
2022-08-27T11:38:34.695Z,30.30
2022-08-27T11:39:34.692Z,28.50
2022-08-27T11:40:34.724Z,30.80
2022-08-27T11:41:44.706Z,29.90
2022-08-27T11:42:35.613Z,25.40
2022-08-27T11:43:34.642Z,23.70
2022-08-27T11:44:34.666Z,22.60
2022-08-27T11:45:34.613Z,25.70
2022-08-27T11:46:34.652Z,25.70
2022-08-27T11:47:34.588Z,22.00
2022-08-27T11:48:34.568Z,29.00
2022-08-27T11:49:34.621Z,31.10
2022-08-27T11:50:34.558Z,28.80
2022-08-27T11:51:34.532Z,29.20
2022-08-27T11:52:34.539Z,29.20
2022-08-27T11:53:34.514Z,27.90
2022-08-27T11:54:35.550Z,23.40
2022-08-27T11:55:34.494Z,21.60
2022-08-27T11:56:34.487Z,21.50
2022-08-27T11:57:34.478Z,23.00
2022-08-27T11:58:34.450Z,29.70
2022-08-27T11:59:35.479Z,36.70
2022-08-27T12:00:34.453Z,33.20
2022-08-27T12:01:34.429Z,29.80
2022-08-27T12:02:34.428Z,26.10
2022-08-27T12:03:35.473Z,23.30
2022-08-27T12:04:34.468Z,22.50
2022-08-27T12:05:34.434Z,24.00
2022-08-27T12:06:34.362Z,27.60
2022-08-27T12:07:34.374Z,43.80
2022-08-27T12:08:34.339Z,23.20
2022-08-27T12:09:34.335Z,20.20
2022-08-27T12:10:34.379Z,16.60
2022-08-27T12:11:34.300Z,12.90
2022-08-27T12:12:34.327Z,14.90
2022-08-27T12:13:34.319Z,17.10
2022-08-27T12:14:34.290Z,17.00
2022-08-27T12:15:34.721Z,19.80
2022-08-27T12:16:34.384Z,20.30
2022-08-27T12:17:34.242Z,18.30
2022-08-27T12:18:34.266Z,20.20
2022-08-27T12:19:34.240Z,16.10
2022-08-27T12:20:34.274Z,15.80
2022-08-27T12:21:34.220Z,17.80
2022-08-27T12:22:39.068Z,22.40
2022-08-27T12:23:35.201Z,26.20
2022-08-27T12:24:34.184Z,29.20
2022-08-27T12:25:34.226Z,31.00
2022-08-27T12:26:34.158Z,31.90
2022-08-27T12:27:34.159Z,30.30
2022-08-27T12:28:34.139Z,25.20
2022-08-27T12:29:34.134Z,22.90
2022-08-27T12:30:34.171Z,25.00
2022-08-27T12:31:34.148Z,29.40
2022-08-27T12:32:34.106Z,27.70
2022-08-27T12:33:34.071Z,27.00
2022-08-27T12:34:34.071Z,21.30
2022-08-27T12:35:34.110Z,17.30
2022-08-27T12:36:34.064Z,12.10
2022-08-27T12:37:34.036Z,12.50
2022-08-27T12:38:34.001Z,12.10
2022-08-27T12:39:33.991Z,11.50
2022-08-27T12:40:34.092Z,13.50